sensor_id;sensor_type;location;lat;lon;timestamp;P1;durP1;ratioP1;P2;durP2;ratioP2
50205;SDS011;36098;48.390;10.856;2022-09-27T00:01:04;2.58;;;1.15;;
50205;SDS011;36098;48.390;10.856;2022-09-27T00:03:31;1.38;;;0.93;;
50205;SDS011;36098;48.390;10.856;2022-09-27T00:06:05;1.55;;;1.05;;
50205;SDS011;36098;48.390;10.856;2022-09-27T00:08:32;1.45;;;1.08;;
50205;SDS011;36098;48.390;10.856;2022-09-27T00:11:00;1.83;;;1.15;;
50205;SDS011;36098;48.390;10.856;2022-09-27T00:13:26;1.52;;;0.90;;
50205;SDS011;36098;48.390;10.856;2022-09-27T00:15:56;1.40;;;1.02;;
50205;SDS011;36098;48.390;10.856;2022-09-27T00:18:22;1.55;;;0.90;;
50205;SDS011;36098;48.390;10.856;2022-09-27T00:20:47;1.83;;;1.10;;
50205;SDS011;36098;48.390;10.856;2022-09-27T00:23:13;1.33;;;1.00;;
50205;SDS011;36098;48.390;10.856;2022-09-27T00:25:38;2.30;;;1.10;;
50205;SDS011;36098;48.390;10.856;2022-09-27T00:28:03;1.50;;;1.00;;
50205;SDS011;36098;48.390;10.856;2022-09-27T00:30:28;1.27;;;0.90;;
50205;SDS011;36098;48.390;10.856;2022-09-27T00:32:54;1.48;;;0.88;;
50205;SDS011;36098;48.390;10.856;2022-09-27T00:35:19;3.05;;;0.95;;
50205;SDS011;36098;48.390;10.856;2022-09-27T00:37:46;1.60;;;0.90;;
50205;SDS011;36098;48.390;10.856;2022-09-27T00:40:12;1.67;;;0.95;;
50205;SDS011;36098;48.390;10.856;2022-09-27T00:42:38;2.53;;;1.05;;
50205;SDS011;36098;48.390;10.856;2022-09-27T00:45:05;1.10;;;0.90;;
50205;SDS011;36098;48.390;10.856;2022-09-27T00:47:37;1.48;;;0.90;;
50205;SDS011;36098;48.390;10.856;2022-09-27T00:50:13;2.53;;;1.00;;
50205;SDS011;36098;48.390;10.856;2022-09-27T00:52:54;1.20;;;0.80;;
50205;SDS011;36098;48.390;10.856;2022-09-27T00:55:36;2.25;;;1.00;;
50205;SDS011;36098;48.390;10.856;2022-09-27T00:58:08;1.35;;;1.00;;
50205;SDS011;36098;48.390;10.856;2022-09-27T01:00:37;1.10;;;0.80;;
50205;SDS011;36098;48.390;10.856;2022-09-27T01:03:06;1.27;;;0.80;;
50205;SDS011;36098;48.390;10.856;2022-09-27T01:05:33;1.45;;;0.93;;
50205;SDS011;36098;48.390;10.856;2022-09-27T01:07:59;1.40;;;0.82;;
50205;SDS011;36098;48.390;10.856;2022-09-27T01:10:25;2.35;;;0.95;;
50205;SDS011;36098;48.390;10.856;2022-09-27T01:12:57;1.67;;;0.75;;
50205;SDS011;36098;48.390;10.856;2022-09-27T01:15:50;1.17;;;0.80;;
50205;SDS011;36098;48.390;10.856;2022-09-27T01:18:39;1.30;;;0.80;;
50205;SDS011;36098;48.390;10.856;2022-09-27T01:21:26;1.23;;;0.70;;
50205;SDS011;36098;48.390;10.856;2022-09-27T01:27:35;2.50;;;0.75;;
50205;SDS011;36098;48.390;10.856;2022-09-27T01:30:21;1.20;;;0.85;;
50205;SDS011;36098;48.390;10.856;2022-09-27T01:33:09;1.17;;;0.93;;
50205;SDS011;36098;48.390;10.856;2022-09-27T01:35:58;4.10;;;0.90;;
50205;SDS011;36098;48.390;10.856;2022-09-27T01:41:37;1.10;;;0.73;;
50205;SDS011;36098;48.390;10.856;2022-09-27T01:46:59;0.75;;;0.70;;
50205;SDS011;36098;48.390;10.856;2022-09-27T01:52:17;1.58;;;0.80;;
50205;SDS011;36098;48.390;10.856;2022-09-27T01:54:46;1.38;;;0.90;;
50205;SDS011;36098;48.390;10.856;2022-09-27T01:57:19;1.52;;;0.90;;
50205;SDS011;36098;48.390;10.856;2022-09-27T01:59:49;0.93;;;0.70;;
50205;SDS011;36098;48.390;10.856;2022-09-27T02:02:19;1.60;;;0.70;;
50205;SDS011;36098;48.390;10.856;2022-09-27T02:04:48;1.10;;;0.88;;
50205;SDS011;36098;48.390;10.856;2022-09-27T02:07:23;1.25;;;0.80;;
50205;SDS011;36098;48.390;10.856;2022-09-27T02:10:01;1.23;;;0.80;;
50205;SDS011;36098;48.390;10.856;2022-09-27T02:12:32;1.63;;;0.88;;
50205;SDS011;36098;48.390;10.856;2022-09-27T02:15:08;0.77;;;0.60;;
50205;SDS011;36098;48.390;10.856;2022-09-27T02:30:53;0.82;;;0.60;;
50205;SDS011;36098;48.390;10.856;2022-09-27T02:33:20;0.88;;;0.60;;
50205;SDS011;36098;48.390;10.856;2022-09-27T02:35:48;0.80;;;0.60;;
50205;SDS011;36098;48.390;10.856;2022-09-27T02:38:13;0.93;;;0.70;;
50205;SDS011;36098;48.390;10.856;2022-09-27T02:40:43;0.85;;;0.60;;
50205;SDS011;36098;48.390;10.856;2022-09-27T02:43:10;1.02;;;0.70;;
50205;SDS011;36098;48.390;10.856;2022-09-27T02:51:06;2.30;;;0.80;;
50205;SDS011;36098;48.390;10.856;2022-09-27T02:54:33;1.10;;;0.60;;
50205;SDS011;36098;48.390;10.856;2022-09-27T03:04:49;1.85;;;0.60;;
50205;SDS011;36098;48.390;10.856;2022-09-27T03:07:19;0.80;;;0.60;;
50205;SDS011;36098;48.390;10.856;2022-09-27T03:09:47;0.82;;;0.57;;
50205;SDS011;36098;48.390;10.856;2022-09-27T03:12:14;1.10;;;0.63;;
50205;SDS011;36098;48.390;10.856;2022-09-27T03:14:46;0.60;;;0.40;;
50205;SDS011;36098;48.390;10.856;2022-09-27T03:17:12;0.93;;;0.77;;
50205;SDS011;36098;48.390;10.856;2022-09-27T03:19:37;0.80;;;0.70;;
50205;SDS011;36098;48.390;10.856;2022-09-27T03:22:03;0.82;;;0.50;;
50205;SDS011;36098;48.390;10.856;2022-09-27T03:24:28;0.60;;;0.50;;
50205;SDS011;36098;48.390;10.856;2022-09-27T03:26:53;1.30;;;0.60;;
50205;SDS011;36098;48.390;10.856;2022-09-27T03:29:19;0.88;;;0.60;;
50205;SDS011;36098;48.390;10.856;2022-09-27T03:31:44;2.53;;;0.73;;
50205;SDS011;36098;48.390;10.856;2022-09-27T03:34:09;0.80;;;0.60;;
50205;SDS011;36098;48.390;10.856;2022-09-27T03:36:34;1.20;;;0.60;;
50205;SDS011;36098;48.390;10.856;2022-09-27T03:39:00;1.42;;;0.60;;
50205;SDS011;36098;48.390;10.856;2022-09-27T03:41:25;0.52;;;0.50;;
50205;SDS011;36098;48.390;10.856;2022-09-27T03:43:50;0.80;;;0.60;;
50205;SDS011;36098;48.390;10.856;2022-09-27T03:46:15;0.75;;;0.50;;
50205;SDS011;36098;48.390;10.856;2022-09-27T03:48:41;0.85;;;0.50;;
50205;SDS011;36098;48.390;10.856;2022-09-27T03:51:06;0.47;;;0.47;;
50205;SDS011;36098;48.390;10.856;2022-09-27T03:53:32;1.08;;;0.65;;
50205;SDS011;36098;48.390;10.856;2022-09-27T03:55:57;0.93;;;0.60;;
50205;SDS011;36098;48.390;10.856;2022-09-27T03:58:23;0.50;;;0.43;;
50205;SDS011;36098;48.390;10.856;2022-09-27T04:00:48;1.13;;;0.60;;
50205;SDS011;36098;48.390;10.856;2022-09-27T04:03:13;0.73;;;0.60;;
50205;SDS011;36098;48.390;10.856;2022-09-27T04:05:39;0.60;;;0.57;;
50205;SDS011;36098;48.390;10.856;2022-09-27T04:08:04;1.00;;;0.50;;
50205;SDS011;36098;48.390;10.856;2022-09-27T04:10:34;0.80;;;0.70;;
50205;SDS011;36098;48.390;10.856;2022-09-27T04:13:00;0.88;;;0.40;;
50205;SDS011;36098;48.390;10.856;2022-09-27T04:15:26;0.45;;;0.40;;
50205;SDS011;36098;48.390;10.856;2022-09-27T04:17:51;0.90;;;0.70;;
50205;SDS011;36098;48.390;10.856;2022-09-27T04:20:16;0.88;;;0.50;;
50205;SDS011;36098;48.390;10.856;2022-09-27T04:22:42;1.25;;;0.50;;
50205;SDS011;36098;48.390;10.856;2022-09-27T04:25:09;1.00;;;0.65;;
50205;SDS011;36098;48.390;10.856;2022-09-27T04:27:35;0.82;;;0.60;;
50205;SDS011;36098;48.390;10.856;2022-09-27T04:30:00;0.50;;;0.43;;
50205;SDS011;36098;48.390;10.856;2022-09-27T04:32:26;1.02;;;0.70;;
50205;SDS011;36098;48.390;10.856;2022-09-27T04:34:51;0.93;;;0.55;;
50205;SDS011;36098;48.390;10.856;2022-09-27T04:37:35;0.63;;;0.50;;
50205;SDS011;36098;48.390;10.856;2022-09-27T04:40:01;0.73;;;0.43;;
50205;SDS011;36098;48.390;10.856;2022-09-27T04:42:26;0.60;;;0.50;;
50205;SDS011;36098;48.390;10.856;2022-09-27T04:44:52;1.10;;;0.55;;
50205;SDS011;36098;48.390;10.856;2022-09-27T04:47:17;0.35;;;0.30;;
50205;SDS011;36098;48.390;10.856;2022-09-27T04:49:45;0.73;;;0.47;;
50205;SDS011;36098;48.390;10.856;2022-09-27T04:52:10;0.73;;;0.45;;
50205;SDS011;36098;48.390;10.856;2022-09-27T04:54:35;0.50;;;0.50;;
50205;SDS011;36098;48.390;10.856;2022-09-27T04:57:02;0.60;;;0.40;;
50205;SDS011;36098;48.390;10.856;2022-09-27T04:59:27;0.88;;;0.50;;
50205;SDS011;36098;48.390;10.856;2022-09-27T05:01:53;0.70;;;0.60;;
50205;SDS011;36098;48.390;10.856;2022-09-27T05:04:18;1.33;;;0.47;;
50205;SDS011;36098;48.390;10.856;2022-09-27T05:06:43;1.10;;;0.60;;
50205;SDS011;36098;48.390;10.856;2022-09-27T05:09:09;1.13;;;0.40;;
50205;SDS011;36098;48.390;10.856;2022-09-27T05:11:34;1.98;;;0.50;;
50205;SDS011;36098;48.390;10.856;2022-09-27T05:14:02;1.70;;;0.40;;
50205;SDS011;36098;48.390;10.856;2022-09-27T05:16:27;2.83;;;0.50;;
50205;SDS011;36098;48.390;10.856;2022-09-27T05:18:53;1.92;;;0.70;;
50205;SDS011;36098;48.390;10.856;2022-09-27T05:21:18;5.63;;;0.93;;
50205;SDS011;36098;48.390;10.856;2022-09-27T05:23:43;0.65;;;0.50;;
50205;SDS011;36098;48.390;10.856;2022-09-27T05:26:09;1.92;;;0.60;;
50205;SDS011;36098;48.390;10.856;2022-09-27T05:28:34;4.05;;;0.77;;
50205;SDS011;36098;48.390;10.856;2022-09-27T05:31:02;4.80;;;0.60;;
50205;SDS011;36098;48.390;10.856;2022-09-27T05:33:28;2.47;;;0.93;;
50205;SDS011;36098;48.390;10.856;2022-09-27T05:35:54;5.20;;;0.70;;
50205;SDS011;36098;48.390;10.856;2022-09-27T05:38:20;5.85;;;1.65;;
50205;SDS011;36098;48.390;10.856;2022-09-27T05:40:46;3.83;;;0.95;;
50205;SDS011;36098;48.390;10.856;2022-09-27T05:43:14;6.88;;;1.17;;
50205;SDS011;36098;48.390;10.856;2022-09-27T05:45:40;2.83;;;0.88;;
50205;SDS011;36098;48.390;10.856;2022-09-27T05:48:05;5.47;;;1.20;;
50205;SDS011;36098;48.390;10.856;2022-09-27T05:50:31;2.25;;;0.85;;
50205;SDS011;36098;48.390;10.856;2022-09-27T05:52:56;2.35;;;1.10;;
50205;SDS011;36098;48.390;10.856;2022-09-27T05:55:21;6.75;;;1.00;;
50205;SDS011;36098;48.390;10.856;2022-09-27T05:57:54;7.85;;;1.05;;
50205;SDS011;36098;48.390;10.856;2022-09-27T06:00:23;1.80;;;1.02;;
50205;SDS011;36098;48.390;10.856;2022-09-27T06:02:59;4.40;;;1.10;;
50205;SDS011;36098;48.390;10.856;2022-09-27T06:05:27;2.55;;;1.02;;
50205;SDS011;36098;48.390;10.856;2022-09-27T06:07:59;2.25;;;0.90;;
50205;SDS011;36098;48.390;10.856;2022-09-27T06:10:25;4.32;;;0.80;;
50205;SDS011;36098;48.390;10.856;2022-09-27T06:12:52;1.40;;;0.90;;
50205;SDS011;36098;48.390;10.856;2022-09-27T06:15:17;3.67;;;0.90;;
50205;SDS011;36098;48.390;10.856;2022-09-27T06:17:42;2.72;;;0.80;;
50205;SDS011;36098;48.390;10.856;2022-09-27T06:20:08;4.05;;;0.85;;
50205;SDS011;36098;48.390;10.856;2022-09-27T06:22:33;2.70;;;0.98;;
50205;SDS011;36098;48.390;10.856;2022-09-27T06:25:00;2.33;;;0.93;;
50205;SDS011;36098;48.390;10.856;2022-09-27T06:27:25;4.55;;;1.27;;
50205;SDS011;36098;48.390;10.856;2022-09-27T06:29:51;2.30;;;0.80;;
50205;SDS011;36098;48.390;10.856;2022-09-27T06:32:16;5.13;;;0.90;;
50205;SDS011;36098;48.390;10.856;2022-09-27T06:34:42;5.50;;;1.20;;
50205;SDS011;36098;48.390;10.856;2022-09-27T06:37:07;3.83;;;0.88;;
50205;SDS011;36098;48.390;10.856;2022-09-27T06:39:32;4.82;;;1.10;;
50205;SDS011;36098;48.390;10.856;2022-09-27T06:41:58;2.75;;;1.00;;
50205;SDS011;36098;48.390;10.856;2022-09-27T06:44:24;4.18;;;0.90;;
50205;SDS011;36098;48.390;10.856;2022-09-27T06:46:50;6.43;;;1.30;;
50205;SDS011;36098;48.390;10.856;2022-09-27T06:49:16;4.45;;;1.50;;
50205;SDS011;36098;48.390;10.856;2022-09-27T06:51:42;8.95;;;1.40;;
50205;SDS011;36098;48.390;10.856;2022-09-27T06:54:07;6.47;;;1.17;;
50205;SDS011;36098;48.390;10.856;2022-09-27T06:56:32;3.35;;;1.42;;
50205;SDS011;36098;48.390;10.856;2022-09-27T06:58:58;10.20;;;1.77;;
50205;SDS011;36098;48.390;10.856;2022-09-27T07:01:41;3.60;;;1.10;;
50205;SDS011;36098;48.390;10.856;2022-09-27T07:04:09;5.03;;;1.20;;
50205;SDS011;36098;48.390;10.856;2022-09-27T07:06:35;4.78;;;1.02;;
50205;SDS011;36098;48.390;10.856;2022-09-27T07:09:01;3.80;;;1.10;;
50205;SDS011;36098;48.390;10.856;2022-09-27T07:11:27;5.60;;;1.30;;
50205;SDS011;36098;48.390;10.856;2022-09-27T07:13:52;2.05;;;1.00;;
50205;SDS011;36098;48.390;10.856;2022-09-27T07:16:18;2.92;;;1.10;;
50205;SDS011;36098;48.390;10.856;2022-09-27T07:18:44;4.53;;;1.10;;
50205;SDS011;36098;48.390;10.856;2022-09-27T07:21:12;5.65;;;1.38;;
50205;SDS011;36098;48.390;10.856;2022-09-27T07:23:39;3.35;;;1.50;;
50205;SDS011;36098;48.390;10.856;2022-09-27T07:26:05;3.40;;;0.90;;
50205;SDS011;36098;48.390;10.856;2022-09-27T07:28:32;4.60;;;1.00;;
50205;SDS011;36098;48.390;10.856;2022-09-27T07:30:58;2.13;;;0.80;;
50205;SDS011;36098;48.390;10.856;2022-09-27T07:33:28;3.35;;;1.15;;
50205;SDS011;36098;48.390;10.856;2022-09-27T07:35:54;2.85;;;1.00;;
50205;SDS011;36098;48.390;10.856;2022-09-27T07:38:19;3.75;;;1.05;;
50205;SDS011;36098;48.390;10.856;2022-09-27T07:40:44;7.45;;;1.35;;
50205;SDS011;36098;48.390;10.856;2022-09-27T07:43:10;2.85;;;1.20;;
50205;SDS011;36098;48.390;10.856;2022-09-27T07:45:36;2.55;;;0.77;;
50205;SDS011;36098;48.390;10.856;2022-09-27T07:48:05;4.20;;;1.00;;
50205;SDS011;36098;48.390;10.856;2022-09-27T07:50:31;2.75;;;1.05;;
50205;SDS011;36098;48.390;10.856;2022-09-27T07:52:57;3.20;;;1.00;;
50205;SDS011;36098;48.390;10.856;2022-09-27T07:55:22;5.40;;;0.90;;
50205;SDS011;36098;48.390;10.856;2022-09-27T07:57:48;1.83;;;0.73;;
50205;SDS011;36098;48.390;10.856;2022-09-27T08:00:15;1.35;;;0.73;;
50205;SDS011;36098;48.390;10.856;2022-09-27T08:02:42;2.03;;;0.90;;
50205;SDS011;36098;48.390;10.856;2022-09-27T08:05:08;4.30;;;0.90;;
50205;SDS011;36098;48.390;10.856;2022-09-27T08:07:34;2.67;;;0.90;;
50205;SDS011;36098;48.390;10.856;2022-09-27T08:10:00;2.35;;;0.80;;
50205;SDS011;36098;48.390;10.856;2022-09-27T08:12:26;2.83;;;0.80;;
50205;SDS011;36098;48.390;10.856;2022-09-27T08:14:51;4.57;;;0.80;;
50205;SDS011;36098;48.390;10.856;2022-09-27T08:17:16;2.70;;;0.98;;
50205;SDS011;36098;48.390;10.856;2022-09-27T08:19:43;2.63;;;1.23;;
50205;SDS011;36098;48.390;10.856;2022-09-27T08:22:13;3.03;;;0.73;;
50205;SDS011;36098;48.390;10.856;2022-09-27T08:24:40;2.92;;;0.70;;
50205;SDS011;36098;48.390;10.856;2022-09-27T08:27:06;2.58;;;0.80;;
50205;SDS011;36098;48.390;10.856;2022-09-27T08:29:33;5.30;;;0.70;;
50205;SDS011;36098;48.390;10.856;2022-09-27T08:31:58;2.50;;;0.68;;
50205;SDS011;36098;48.390;10.856;2022-09-27T08:34:24;1.70;;;0.70;;
50205;SDS011;36098;48.390;10.856;2022-09-27T08:36:49;3.28;;;0.80;;
50205;SDS011;36098;48.390;10.856;2022-09-27T08:39:14;2.35;;;0.90;;
50205;SDS011;36098;48.390;10.856;2022-09-27T08:41:43;2.42;;;0.90;;
50205;SDS011;36098;48.390;10.856;2022-09-27T08:50:09;3.50;;;0.85;;
50205;SDS011;36098;48.390;10.856;2022-09-27T08:55:26;7.78;;;1.52;;
50205;SDS011;36098;48.390;10.856;2022-09-27T08:57:57;1.70;;;0.82;;
50205;SDS011;36098;48.390;10.856;2022-09-27T09:00:24;2.60;;;0.82;;
50205;SDS011;36098;48.390;10.856;2022-09-27T09:02:52;3.17;;;0.80;;
50205;SDS011;36098;48.390;10.856;2022-09-27T09:07:59;2.03;;;0.60;;
50205;SDS011;36098;48.390;10.856;2022-09-27T09:13:27;5.40;;;0.90;;
50205;SDS011;36098;48.390;10.856;2022-09-27T09:16:12;2.25;;;0.70;;
50205;SDS011;36098;48.390;10.856;2022-09-27T09:18:46;1.65;;;0.82;;
50205;SDS011;36098;48.390;10.856;2022-09-27T09:21:53;1.77;;;0.70;;
50205;SDS011;36098;48.390;10.856;2022-09-27T09:24:31;8.15;;;1.10;;
50205;SDS011;36098;48.390;10.856;2022-09-27T09:32:56;2.20;;;0.70;;
50205;SDS011;36098;48.390;10.856;2022-09-27T09:38:28;2.20;;;0.68;;
50205;SDS011;36098;48.390;10.856;2022-09-27T09:40:56;2.40;;;0.70;;
50205;SDS011;36098;48.390;10.856;2022-09-27T09:43:29;0.93;;;0.57;;
50205;SDS011;36098;48.390;10.856;2022-09-27T09:46:07;3.92;;;0.70;;
50205;SDS011;36098;48.390;10.856;2022-09-27T09:51:10;2.38;;;0.75;;
50205;SDS011;36098;48.390;10.856;2022-09-27T09:54:03;4.97;;;0.80;;
50205;SDS011;36098;48.390;10.856;2022-09-27T09:56:33;1.42;;;0.40;;
50205;SDS011;36098;48.390;10.856;2022-09-27T09:59:04;0.80;;;0.50;;
50205;SDS011;36098;48.390;10.856;2022-09-27T10:01:41;2.10;;;0.63;;
50205;SDS011;36098;48.390;10.856;2022-09-27T10:04:20;1.73;;;0.70;;
50205;SDS011;36098;48.390;10.856;2022-09-27T10:06:48;1.15;;;0.43;;
50205;SDS011;36098;48.390;10.856;2022-09-27T10:09:14;0.85;;;0.40;;
50205;SDS011;36098;48.390;10.856;2022-09-27T10:11:42;1.73;;;0.70;;
50205;SDS011;36098;48.390;10.856;2022-09-27T10:14:10;1.15;;;0.50;;
50205;SDS011;36098;48.390;10.856;2022-09-27T10:16:37;1.20;;;0.43;;
50205;SDS011;36098;48.390;10.856;2022-09-27T10:19:06;1.50;;;0.88;;
50205;SDS011;36098;48.390;10.856;2022-09-27T10:21:33;3.45;;;0.68;;
50205;SDS011;36098;48.390;10.856;2022-09-27T10:26:41;4.78;;;0.63;;
50205;SDS011;36098;48.390;10.856;2022-09-27T10:31:53;3.28;;;0.55;;
50205;SDS011;36098;48.390;10.856;2022-09-27T10:34:41;3.33;;;0.82;;
50205;SDS011;36098;48.390;10.856;2022-09-27T10:37:14;3.70;;;0.57;;
50205;SDS011;36098;48.390;10.856;2022-09-27T10:39:43;3.05;;;0.63;;
50205;SDS011;36098;48.390;10.856;2022-09-27T10:42:19;2.05;;;0.70;;
50205;SDS011;36098;48.390;10.856;2022-09-27T10:44:45;0.98;;;0.50;;
50205;SDS011;36098;48.390;10.856;2022-09-27T10:47:12;1.83;;;0.73;;
50205;SDS011;36098;48.390;10.856;2022-09-27T10:49:46;1.85;;;0.70;;
50205;SDS011;36098;48.390;10.856;2022-09-27T10:52:16;2.88;;;0.60;;
50205;SDS011;36098;48.390;10.856;2022-09-27T10:54:56;1.58;;;0.60;;
50205;SDS011;36098;48.390;10.856;2022-09-27T10:57:25;2.05;;;0.60;;
50205;SDS011;36098;48.390;10.856;2022-09-27T11:00:06;4.13;;;0.68;;
50205;SDS011;36098;48.390;10.856;2022-09-27T11:02:44;2.22;;;0.52;;
50205;SDS011;36098;48.390;10.856;2022-09-27T11:07:50;2.42;;;0.75;;
50205;SDS011;36098;48.390;10.856;2022-09-27T11:15:30;2.67;;;0.65;;
50205;SDS011;36098;48.390;10.856;2022-09-27T11:18:10;1.70;;;0.57;;
50205;SDS011;36098;48.390;10.856;2022-09-27T11:21:26;0.90;;;0.60;;
50205;SDS011;36098;48.390;10.856;2022-09-27T11:26:43;2.28;;;0.52;;
50205;SDS011;36098;48.390;10.856;2022-09-27T11:38:15;1.25;;;0.60;;
50205;SDS011;36098;48.390;10.856;2022-09-27T11:46:13;3.00;;;0.50;;
50205;SDS011;36098;48.390;10.856;2022-09-27T11:49:11;11.90;;;2.85;;
50205;SDS011;36098;48.390;10.856;2022-09-27T11:57:59;15.43;;;3.65;;
50205;SDS011;36098;48.390;10.856;2022-09-27T12:00:36;14.98;;;3.63;;
50205;SDS011;36098;48.390;10.856;2022-09-27T12:06:06;11.52;;;3.08;;
50205;SDS011;36098;48.390;10.856;2022-09-27T12:11:30;12.25;;;2.60;;
50205;SDS011;36098;48.390;10.856;2022-09-27T12:14:10;8.48;;;2.00;;
50205;SDS011;36098;48.390;10.856;2022-09-27T12:16:42;9.82;;;1.92;;
50205;SDS011;36098;48.390;10.856;2022-09-27T12:19:11;9.38;;;2.40;;
50205;SDS011;36098;48.390;10.856;2022-09-27T12:21:51;6.07;;;2.15;;
50205;SDS011;36098;48.390;10.856;2022-09-27T12:24:20;5.97;;;1.45;;
50205;SDS011;36098;48.390;10.856;2022-09-27T12:26:48;11.32;;;1.85;;
50205;SDS011;36098;48.390;10.856;2022-09-27T12:29:30;10.88;;;1.70;;
50205;SDS011;36098;48.390;10.856;2022-09-27T12:32:32;8.98;;;1.50;;
50205;SDS011;36098;48.390;10.856;2022-09-27T12:38:14;10.25;;;1.40;;
50205;SDS011;36098;48.390;10.856;2022-09-27T12:40:38;8.35;;;1.75;;
50205;SDS011;36098;48.390;10.856;2022-09-27T12:43:39;9.65;;;2.05;;
50205;SDS011;36098;48.390;10.856;2022-09-27T12:51:48;6.45;;;1.95;;
50205;SDS011;36098;48.390;10.856;2022-09-27T13:04:48;3.03;;;1.23;;
50205;SDS011;36098;48.390;10.856;2022-09-27T13:10:47;5.30;;;1.10;;
50205;SDS011;36098;48.390;10.856;2022-09-27T13:13:32;4.43;;;1.00;;
50205;SDS011;36098;48.390;10.856;2022-09-27T13:15:59;5.13;;;0.88;;
50205;SDS011;36098;48.390;10.856;2022-09-27T13:21:00;5.63;;;1.15;;
50205;SDS011;36098;48.390;10.856;2022-09-27T13:25:55;3.30;;;0.90;;
50205;SDS011;36098;48.390;10.856;2022-09-27T13:33:30;2.03;;;0.65;;
50205;SDS011;36098;48.390;10.856;2022-09-27T13:44:15;1.88;;;0.73;;
50205;SDS011;36098;48.390;10.856;2022-09-27T13:55:39;4.22;;;0.60;;
50205;SDS011;36098;48.390;10.856;2022-09-27T14:01:25;1.98;;;0.70;;
50205;SDS011;36098;48.390;10.856;2022-09-27T14:03:55;2.55;;;0.50;;
50205;SDS011;36098;48.390;10.856;2022-09-27T14:06:31;2.17;;;0.60;;
50205;SDS011;36098;48.390;10.856;2022-09-27T14:09:02;1.27;;;0.43;;
50205;SDS011;36098;48.390;10.856;2022-09-27T14:11:32;1.40;;;0.40;;
50205;SDS011;36098;48.390;10.856;2022-09-27T14:14:00;2.25;;;0.77;;
50205;SDS011;36098;48.390;10.856;2022-09-27T14:16:29;2.22;;;0.43;;
50205;SDS011;36098;48.390;10.856;2022-09-27T14:19:00;0.98;;;0.57;;
50205;SDS011;36098;48.390;10.856;2022-09-27T14:26:48;3.90;;;0.63;;
50205;SDS011;36098;48.390;10.856;2022-09-27T14:29:19;1.52;;;0.60;;
50205;SDS011;36098;48.390;10.856;2022-09-27T14:32:04;1.38;;;0.52;;
50205;SDS011;36098;48.390;10.856;2022-09-27T14:34:38;2.10;;;0.47;;
50205;SDS011;36098;48.390;10.856;2022-09-27T14:37:05;2.28;;;0.38;;
50205;SDS011;36098;48.390;10.856;2022-09-27T14:39:54;3.83;;;0.50;;
50205;SDS011;36098;48.390;10.856;2022-09-27T14:42:22;0.93;;;0.30;;
50205;SDS011;36098;48.390;10.856;2022-09-27T14:44:49;4.38;;;0.60;;
50205;SDS011;36098;48.390;10.856;2022-09-27T14:47:19;4.07;;;0.50;;
50205;SDS011;36098;48.390;10.856;2022-09-27T14:49:51;2.40;;;0.40;;
50205;SDS011;36098;48.390;10.856;2022-09-27T14:52:24;2.58;;;0.55;;
50205;SDS011;36098;48.390;10.856;2022-09-27T14:55:04;1.25;;;0.60;;
50205;SDS011;36098;48.390;10.856;2022-09-27T14:57:37;6.07;;;0.65;;
50205;SDS011;36098;48.390;10.856;2022-09-27T15:02:40;2.72;;;0.45;;
50205;SDS011;36098;48.390;10.856;2022-09-27T15:05:13;3.08;;;0.70;;
50205;SDS011;36098;48.390;10.856;2022-09-27T15:07:40;3.55;;;0.70;;
50205;SDS011;36098;48.390;10.856;2022-09-27T15:10:11;4.28;;;0.60;;
50205;SDS011;36098;48.390;10.856;2022-09-27T15:12:42;5.20;;;0.60;;
50205;SDS011;36098;48.390;10.856;2022-09-27T15:15:12;6.40;;;0.50;;
50205;SDS011;36098;48.390;10.856;2022-09-27T15:17:43;5.68;;;0.60;;
50205;SDS011;36098;48.390;10.856;2022-09-27T15:22:46;5.15;;;0.77;;
50205;SDS011;36098;48.390;10.856;2022-09-27T15:25:20;6.22;;;0.70;;
50205;SDS011;36098;48.390;10.856;2022-09-27T15:30:35;2.63;;;0.50;;
50205;SDS011;36098;48.390;10.856;2022-09-27T15:33:03;1.67;;;0.63;;
50205;SDS011;36098;48.390;10.856;2022-09-27T15:35:30;3.30;;;0.60;;
50205;SDS011;36098;48.390;10.856;2022-09-27T15:43:19;2.88;;;0.52;;
50205;SDS011;36098;48.390;10.856;2022-09-27T15:48:16;2.42;;;0.50;;
50205;SDS011;36098;48.390;10.856;2022-09-27T15:50:43;2.03;;;0.40;;
50205;SDS011;36098;48.390;10.856;2022-09-27T15:53:10;5.60;;;0.70;;
50205;SDS011;36098;48.390;10.856;2022-09-27T15:55:40;2.65;;;0.60;;
50205;SDS011;36098;48.390;10.856;2022-09-27T15:58:11;1.38;;;0.52;;
50205;SDS011;36098;48.390;10.856;2022-09-27T16:00:57;1.23;;;0.32;;
50205;SDS011;36098;48.390;10.856;2022-09-27T16:03:26;3.65;;;0.50;;
50205;SDS011;36098;48.390;10.856;2022-09-27T16:05:52;4.70;;;0.80;;
50205;SDS011;36098;48.390;10.856;2022-09-27T16:08:20;1.85;;;0.52;;
50205;SDS011;36098;48.390;10.856;2022-09-27T16:10:47;5.25;;;0.63;;
50205;SDS011;36098;48.390;10.856;2022-09-27T16:13:14;2.88;;;0.40;;
50205;SDS011;36098;48.390;10.856;2022-09-27T16:15:40;1.42;;;0.45;;
50205;SDS011;36098;48.390;10.856;2022-09-27T16:18:05;2.42;;;0.50;;
50205;SDS011;36098;48.390;10.856;2022-09-27T16:20:31;3.03;;;0.75;;
50205;SDS011;36098;48.390;10.856;2022-09-27T16:22:56;2.13;;;0.40;;
50205;SDS011;36098;48.390;10.856;2022-09-27T16:25:22;2.58;;;0.55;;
50205;SDS011;36098;48.390;10.856;2022-09-27T16:27:48;2.35;;;0.55;;
50205;SDS011;36098;48.390;10.856;2022-09-27T16:30:14;8.20;;;0.80;;
50205;SDS011;36098;48.390;10.856;2022-09-27T16:35:08;6.05;;;0.73;;
50205;SDS011;36098;48.390;10.856;2022-09-27T16:37:34;2.70;;;0.75;;
50205;SDS011;36098;48.390;10.856;2022-09-27T16:40:01;1.95;;;0.60;;
50205;SDS011;36098;48.390;10.856;2022-09-27T16:42:27;0.88;;;0.50;;
50205;SDS011;36098;48.390;10.856;2022-09-27T16:44:52;4.28;;;1.08;;
50205;SDS011;36098;48.390;10.856;2022-09-27T16:47:18;6.38;;;0.52;;
50205;SDS011;36098;48.390;10.856;2022-09-27T16:49:43;2.92;;;0.60;;
50205;SDS011;36098;48.390;10.856;2022-09-27T16:52:28;4.82;;;0.82;;
50205;SDS011;36098;48.390;10.856;2022-09-27T16:54:55;3.75;;;0.60;;
50205;SDS011;36098;48.390;10.856;2022-09-27T16:57:20;4.82;;;0.50;;
50205;SDS011;36098;48.390;10.856;2022-09-27T16:59:46;0.60;;;0.45;;
50205;SDS011;36098;48.390;10.856;2022-09-27T17:02:12;12.23;;;0.60;;
50205;SDS011;36098;48.390;10.856;2022-09-27T17:04:37;1.63;;;0.60;;
50205;SDS011;36098;48.390;10.856;2022-09-27T17:07:03;2.40;;;0.50;;
50205;SDS011;36098;48.390;10.856;2022-09-27T17:09:28;2.40;;;0.65;;
50205;SDS011;36098;48.390;10.856;2022-09-27T17:11:53;2.25;;;0.50;;
50205;SDS011;36098;48.390;10.856;2022-09-27T17:14:20;4.60;;;0.60;;
50205;SDS011;36098;48.390;10.856;2022-09-27T17:16:45;3.03;;;0.50;;
50205;SDS011;36098;48.390;10.856;2022-09-27T17:19:15;5.80;;;0.55;;
50205;SDS011;36098;48.390;10.856;2022-09-27T17:21:43;2.88;;;0.90;;
50205;SDS011;36098;48.390;10.856;2022-09-27T17:24:09;4.50;;;1.20;;
50205;SDS011;36098;48.390;10.856;2022-09-27T17:26:35;5.82;;;1.98;;
50205;SDS011;36098;48.390;10.856;2022-09-27T17:29:01;9.98;;;3.65;;
50205;SDS011;36098;48.390;10.856;2022-09-27T17:31:27;7.38;;;4.00;;
50205;SDS011;36098;48.390;10.856;2022-09-27T17:33:55;18.02;;;8.63;;
50205;SDS011;36098;48.390;10.856;2022-09-27T17:36:21;25.50;;;8.82;;
50205;SDS011;36098;48.390;10.856;2022-09-27T17:38:48;19.95;;;8.07;;
50205;SDS011;36098;48.390;10.856;2022-09-27T17:41:16;13.80;;;6.22;;
50205;SDS011;36098;48.390;10.856;2022-09-27T17:43:44;13.48;;;6.57;;
50205;SDS011;36098;48.390;10.856;2022-09-27T17:46:17;13.98;;;6.47;;
50205;SDS011;36098;48.390;10.856;2022-09-27T17:48:44;19.88;;;7.05;;
50205;SDS011;36098;48.390;10.856;2022-09-27T17:51:29;15.20;;;6.43;;